Time;durP1;ratioP1;P1;durP2;ratioP2;P2;SDS_P1;SDS_P2;PMS_P1;PMS_P2;Temp;Humidity;BMP_temperature;BMP_pressure;BME280_temperature;BME280_humidity;BME280_pressure;Samples;Min_cycle;Max_cycle;Signal;HPM_P1;HPM_P2
2021/10/15 00:00:01;;;;;;;16.05;11.68;;;;;;;3.39;100.00;96315.97;1019182;29;20031;-69
2021/10/15 00:00:31;;;;;;;15.02;11.68;;;;;;;3.31;100.00;96313.59;1023181;28;20027;-69
2021/10/15 00:01:01;;;;;;;14.48;10.50;;;;;;;3.36;100.00;96315.59;1027254;28;20026;-69
2021/10/15 00:01:32;;;;;;;13.55;10.75;;;;;;;3.34;100.00;96313.19;1027159;28;20027;-69
2021/10/15 00:02:03;;;;;;;14.52;10.93;;;;;;;3.33;100.00;96316.78;1027178;28;20031;-70
2021/10/15 00:02:33;;;;;;;13.85;11.40;;;;;;;3.31;100.00;96303.22;1023246;28;20042;-69
2021/10/15 00:03:03;;;;;;;17.15;11.57;;;;;;;3.28;100.00;96311.41;1031166;28;20054;-68
2021/10/15 00:03:34;;;;;;;14.07;10.98;;;;;;;3.30;100.00;96312.00;1035404;28;20033;-69
2021/10/15 00:04:04;;;;;;;16.48;11.95;;;;;;;3.29;100.00;96313.81;1035130;28;20030;-68
2021/10/15 00:04:35;;;;;;;15.43;11.32;;;;;;;3.26;100.00;96309.03;1035088;28;20030;-68
2021/10/15 00:05:06;;;;;;;15.35;11.75;;;;;;;3.18;100.00;96303.22;1030934;28;20515;-68
2021/10/15 00:05:37;;;;;;;16.52;11.98;;;;;;;3.26;100.00;96314.22;1027099;28;20128;-69
2021/10/15 00:06:07;;;;;;;21.27;12.52;;;;;;;3.25;100.00;96304.03;1031218;28;20039;-68
2021/10/15 00:06:38;;;;;;;17.30;12.50;;;;;;;3.21;100.00;96305.44;1031214;28;20021;-68
2021/10/15 00:07:08;;;;;;;16.85;11.82;;;;;;;3.20;100.00;96302.03;1023131;28;20116;-69
2021/10/15 00:07:38;;;;;;;16.73;12.15;;;;;;;3.10;100.00;96287.91;1022760;29;20027;-66
2021/10/15 00:08:09;;;;;;;18.83;12.25;;;;;;;3.15;100.00;96306.22;1018793;29;20032;-69
2021/10/15 00:08:39;;;;;;;14.57;10.95;;;;;;;3.13;100.00;96297.88;1019217;28;20083;-68
2021/10/15 00:09:10;;;;;;;15.07;11.32;;;;;;;3.03;100.00;96285.31;1031311;28;20097;-69
2021/10/15 00:09:40;;;;;;;18.15;11.50;;;;;;;3.11;100.00;96302.44;1031121;28;20033;-68
2021/10/15 00:10:11;;;;;;;18.05;11.70;;;;;;;3.09;100.00;96299.28;1031062;28;20018;-69
2021/10/15 00:10:41;;;;;;;17.38;12.27;;;;;;;3.06;100.00;96300.47;1026987;28;20022;-69
2021/10/15 00:11:12;;;;;;;17.00;12.27;;;;;;;3.04;100.00;96303.25;1023117;28;20026;-69
2021/10/15 00:11:45;;;;;;;15.73;11.70;;;;;;;3.03;100.00;96298.28;1023273;28;20023;-69
2021/10/15 00:12:15;;;;;;;13.18;10.00;;;;;;;2.96;100.00;96290.50;1026667;28;20139;-68
2021/10/15 00:12:45;;;;;;;15.73;11.57;;;;;;;3.00;100.00;96296.88;1023678;28;20086;-68
2021/10/15 00:13:16;;;;;;;14.95;11.30;;;;;;;3.00;100.00;96299.47;1023713;28;20527;-70
2021/10/15 00:13:46;;;;;;;16.25;11.77;;;;;;;2.97;100.00;96291.28;1027135;28;20425;-68
2021/10/15 00:14:17;;;;;;;14.43;11.20;;;;;;;2.94;100.00;96291.69;1019196;28;20394;-67
2021/10/15 00:14:47;;;;;;;15.27;11.18;;;;;;;2.95;100.00;96295.88;1019116;29;20020;-69
2021/10/15 00:15:18;;;;;;;15.32;10.77;;;;;;;2.95;100.00;96299.28;1015197;29;20493;-68
2021/10/15 00:15:48;;;;;;;20.38;13.00;;;;;;;2.89;100.00;96289.72;1020250;29;20628;-67
2021/10/15 00:16:19;;;;;;;13.30;11.18;;;;;;;2.90;100.00;96295.69;1023007;28;20034;-69
2021/10/15 00:16:49;;;;;;;15.52;11.48;;;;;;;2.89;100.00;96305.25;1023986;28;20086;-69
2021/10/15 00:17:20;;;;;;;14.95;10.02;;;;;;;2.85;100.00;96304.06;1027196;28;20066;-69
2021/10/15 00:17:50;;;;;;;15.82;10.90;;;;;;;2.84;100.00;96297.28;1026638;28;20508;-68
2021/10/15 00:18:20;;;;;;;15.73;10.65;;;;;;;2.84;100.00;96302.47;1025930;28;20027;-68
2021/10/15 00:18:51;;;;;;;15.70;10.60;;;;;;;2.81;100.00;96301.06;1026558;28;20025;-68
2021/10/15 00:19:21;;;;;;;16.95;11.75;;;;;;;2.87;100.00;96306.44;1027034;28;20019;-68
2021/10/15 00:19:52;;;;;;;15.05;11.07;;;;;;;2.83;100.00;96298.28;1027227;28;20131;-69
2021/10/15 00:20:22;;;;;;;15.15;11.43;;;;;;;2.82;100.00;96299.28;1022941;29;20576;-69
2021/10/15 00:20:53;;;;;;;18.95;11.50;;;;;;;2.81;100.00;96298.47;1018967;29;20425;-68
2021/10/15 00:21:23;;;;;;;17.52;11.82;;;;;;;2.79;100.00;96295.28;1019261;29;20091;-69
2021/10/15 00:21:53;;;;;;;17.13;12.10;;;;;;;2.78;100.00;96298.91;1021522;28;20027;-67
2021/10/15 00:22:24;;;;;;;20.70;12.00;;;;;;;2.77;100.00;96294.69;1022905;28;20059;-70
2021/10/15 00:22:54;;;;;;;17.85;12.20;;;;;;;2.76;100.00;96294.91;1022955;29;20461;-68
2021/10/15 00:23:25;;;;;;;17.45;11.38;;;;;;;2.76;100.00;96292.31;1019190;29;20429;-69
2021/10/15 00:23:55;;;;;;;16.15;10.50;;;;;;;2.73;100.00;96292.69;1023087;29;20520;-68
2021/10/15 00:24:26;;;;;;;13.38;10.27;;;;;;;2.70;100.00;96290.50;1027035;28;20070;-68
2021/10/15 00:24:56;;;;;;;14.18;11.20;;;;;;;2.71;100.00;96292.09;1030973;28;20026;-68
2021/10/15 00:25:27;;;;;;;13.23;10.77;;;;;;;2.67;100.00;96293.50;1033933;28;20029;-68
2021/10/15 00:25:57;;;;;;;15.13;11.18;;;;;;;2.64;100.00;96280.94;1022856;29;20023;-69
2021/10/15 00:26:27;;;;;;;14.38;11.20;;;;;;;2.64;100.00;96288.72;1019133;29;20031;-67
2021/10/15 00:26:58;;;;;;;16.45;11.20;;;;;;;2.64;100.00;96283.53;1019111;29;20045;-68
2021/10/15 00:27:28;;;;;;;16.50;11.27;;;;;;;2.59;100.00;96279.75;1020749;28;20035;-68
2021/10/15 00:27:59;;;;;;;14.65;10.68;;;;;;;2.64;100.00;96278.34;1026284;28;20037;-67
2021/10/15 00:28:29;;;;;;;14.60;11.35;;;;;;;2.63;100.00;96287.13;1026961;28;20027;-69
2021/10/15 00:29:00;;;;;;;14.32;10.98;;;;;;;2.64;100.00;96280.94;1025922;28;20489;-68
2021/10/15 00:29:30;;;;;;;17.27;12.38;;;;;;;2.54;100.00;96276.94;1023412;28;20512;-69
2021/10/15 00:30:01;;;;;;;17.70;11.07;;;;;;;2.56;100.00;96274.94;1031007;28;20531;-68
2021/10/15 00:30:31;;;;;;;18.08;12.50;;;;;;;2.59;100.00;96284.13;1027070;28;20077;-69
2021/10/15 00:31:02;;;;;;;16.60;11.25;;;;;;;2.57;100.00;96281.72;1026963;28;20389;-69
2021/10/15 00:31:32;;;;;;;13.88;11.07;;;;;;;2.55;100.00;96278.56;1025930;28;20041;-68
2021/10/15 00:32:04;;;;;;;12.73;9.82;;;;;;;2.55;100.00;96275.97;1023194;28;20027;-69
2021/10/15 00:32:35;;;;;;;15.84;10.40;;;;;;;2.55;100.00;96275.97;1026789;28;20019;-68
2021/10/15 00:33:05;;;;;;;14.43;9.80;;;;;;;2.54;100.00;96284.72;1026309;28;20026;-68
2021/10/15 00:33:35;;;;;;;15.15;9.75;;;;;;;2.45;100.00;96264.38;1027441;28;20073;-68
2021/10/15 00:34:06;;;;;;;14.85;10.25;;;;;;;2.51;100.00;96279.91;1022935;29;20034;-68
2021/10/15 00:34:38;;;;;;;17.73;11.07;;;;;;;2.46;100.00;96271.97;1020610;29;20019;-68
2021/10/15 00:35:09;;;;;;;14.50;10.68;;;;;;;2.49;100.00;96278.53;1015098;29;20031;-68
2021/10/15 00:35:39;;;;;;;13.43;10.13;;;;;;;2.49;100.00;96279.34;1017775;28;20081;-69
2021/10/15 00:36:10;;;;;;;16.00;11.07;;;;;;;2.45;100.00;96272.13;1027068;28;20023;-69
2021/10/15 00:36:40;;;;;;;14.05;10.45;;;;;;;2.49;100.00;96276.75;1019111;28;20011;-69
2021/10/15 00:37:11;;;;;;;14.32;9.82;;;;;;;2.47;100.00;96281.31;1026848;28;20488;-70
2021/10/15 00:37:41;;;;;;;14.90;10.75;;;;;;;2.46;100.00;96279.72;1022426;29;20389;-68
2021/10/15 00:38:12;;;;;;;15.07;11.02;;;;;;;2.45;100.00;96264.38;1022909;28;20020;-68
2021/10/15 00:38:42;;;;;;;18.55;10.98;;;;;;;2.47;100.00;96285.69;1026829;28;20027;-70
2021/10/15 00:39:13;;;;;;;15.88;10.98;;;;;;;2.48;100.00;96271.75;1023066;28;20027;-69
2021/10/15 00:39:43;;;;;;;16.35;10.43;;;;;;;2.46;100.00;96274.56;1027862;28;20031;-69
2021/10/15 00:40:14;;;;;;;15.55;10.73;;;;;;;2.46;100.00;96268.56;1028808;28;20066;-68
2021/10/15 00:40:45;;;;;;;13.70;10.13;;;;;;;2.46;100.00;96269.38;1019697;29;20042;-69
2021/10/15 00:41:16;;;;;;;11.55;9.75;;;;;;;2.44;100.00;96273.94;1019407;29;20666;-68
2021/10/15 00:41:47;;;;;;;13.14;10.68;;;;;;;2.38;100.00;96266.16;1016024;29;20042;-69
2021/10/15 00:42:17;;;;;;;12.55;10.02;;;;;;;2.35;100.00;96260.41;1015795;29;20454;-68
2021/10/15 00:42:48;;;;;;;13.50;9.75;;;;;;;2.46;100.00;96268.56;1019214;29;20047;-69
2021/10/15 00:43:18;;;;;;;13.23;9.95;;;;;;;2.46;100.00;96271.97;1019362;29;20058;-68
2021/10/15 00:44:03;;;;;;;15.32;10.32;;;;;;;2.40;100.00;96266.78;1015212;29;20569;-68
2021/10/15 00:44:36;;;;;;;13.10;8.94;;;;;;;2.38;100.00;96255.81;1019591;29;20417;-69
2021/10/15 00:45:07;;;;;;;14.62;9.90;;;;;;;2.42;100.00;96265.59;1027030;28;20031;-68
2021/10/15 00:45:37;;;;;;;16.60;10.22;;;;;;;2.42;100.00;96267.38;1026966;28;20571;-68
2021/10/15 00:46:08;;;;;;;12.68;10.18;;;;;;;2.41;100.00;96261.38;1027881;28;20015;-68
2021/10/15 00:46:39;;;;;;;15.23;10.90;;;;;;;2.40;100.00;96264.97;1031193;28;20023;-68
2021/10/15 00:47:09;;;;;;;15.48;10.94;;;;;;;2.38;100.00;96266.97;1031559;28;20050;-69
2021/10/15 00:47:40;;;;;;;16.15;12.18;;;;;;;2.38;100.00;96263.56;1034895;28;20439;-68
2021/10/15 00:48:10;;;;;;;15.60;11.15;;;;;;;2.35;100.00;96259.59;1026709;28;20544;-68
2021/10/15 00:48:41;;;;;;;14.65;11.45;;;;;;;2.35;100.00;96257.81;1023239;29;20397;-68
2021/10/15 00:49:12;;;;;;;15.85;11.43;;;;;;;2.35;100.00;96264.78;1023200;29;20031;-69
2021/10/15 00:49:42;;;;;;;15.78;11.06;;;;;;;2.25;100.00;96246.25;1019135;29;20031;-68
2021/10/15 00:50:13;;;;;;;16.35;11.60;;;;;;;2.32;100.00;96263.38;1023406;28;20397;-68
2021/10/15 00:50:44;;;;;;;16.50;11.85;;;;;;;2.28;100.00;96257.00;1022955;29;20573;-69
2021/10/15 00:51:17;;;;;;;19.14;10.30;;;;;;;2.31;100.00;96266.16;1019359;29;20019;-68
2021/10/15 00:51:48;;;;;;;17.62;10.30;;;;;;;2.28;100.00;96262.19;1015883;29;20032;-70
2021/10/15 00:52:18;;;;;;;21.75;10.85;;;;;;;2.27;100.00;96262.38;1015774;29;20031;-69
2021/10/15 00:52:49;;;;;;;19.55;10.70;;;;;;;2.26;100.00;96258.19;1015741;29;20040;-69
2021/10/15 00:53:20;;;;;;;13.90;9.88;;;;;;;2.22;100.00;96257.78;1015686;29;20024;-68
2021/10/15 00:53:50;;;;;;;24.73;10.65;;;;;;;2.15;100.00;96241.47;1015312;29;20035;-70
2021/10/15 00:54:21;;;;;;;16.98;10.05;;;;;;;2.22;100.00;96257.00;1019585;29;20051;-69
2021/10/15 00:54:51;;;;;;;19.27;10.65;;;;;;;2.21;100.00;96257.97;1019188;29;20111;-69
2021/10/15 00:55:21;;;;;;;17.60;10.75;;;;;;;2.21;100.00;96256.19;1019623;29;20028;-69
2021/10/15 00:55:52;;;;;;;14.43;10.23;;;;;;;2.21;100.00;96263.16;1023138;29;20035;-69
2021/10/15 00:56:22;;;;;;;16.17;10.50;;;;;;;2.20;100.00;96256.38;1023075;28;20027;-68
2021/10/15 00:56:53;;;;;;;17.92;11.27;;;;;;;2.22;100.00;96251.81;1023262;29;20027;-68
2021/10/15 00:57:23;;;;;;;12.07;8.75;;;;;;;2.11;100.00;96240.22;1023129;29;20449;-68
2021/10/15 00:57:54;;;;;;;13.82;9.90;;;;;;;2.21;100.00;96256.19;1018573;29;20474;-69
2021/10/15 00:58:24;;;;;;;15.88;11.52;;;;;;;2.22;100.00;96251.81;1030297;28;20034;-69
2021/10/15 00:58:55;;;;;;;13.93;10.10;;;;;;;2.20;100.00;96254.59;1027141;28;20027;-67
2021/10/15 00:59:25;;;;;;;17.38;10.85;;;;;;;2.20;100.00;96256.38;1015211;29;20028;-69
2021/10/15 00:59:56;;;;;;;13.65;11.43;;;;;;;2.20;100.00;96256.38;1015413;29;20028;-68
2021/10/15 01:00:26;;;;;;;15.07;11.85;;;;;;;2.15;100.00;96243.22;1019007;29;20036;-68
2021/10/15 01:00:56;;;;;;;19.17;11.48;;;;;;;2.15;100.00;96245.81;1019435;28;20083;-69
2021/10/15 01:01:27;;;;;;;15.90;10.50;;;;;;;2.18;100.00;96255.78;1027196;28;20109;-68
2021/10/15 01:01:58;;;;;;;21.90;11.20;;;;;;;2.15;100.00;96251.00;1023241;28;20023;-68
2021/10/15 01:02:28;;;;;;;17.88;10.43;;;;;;;2.13;100.00;96248.59;1023416;28;20278;-68
2021/10/15 01:02:59;;;;;;;15.77;10.45;;;;;;;2.13;100.00;96254.56;1023085;29;20027;-68
2021/10/15 01:03:29;;;;;;;13.57;10.07;;;;;;;2.12;100.00;96249.63;1019427;29;20120;-69
2021/10/15 01:04:00;;;;;;;14.18;9.98;;;;;;;2.11;100.00;96246.22;1019186;29;20103;-69
2021/10/15 01:04:31;;;;;;;17.08;10.73;;;;;;;2.12;100.00;96250.41;1019087;29;20115;-69
2021/10/15 01:05:01;;;;;;;15.40;11.35;;;;;;;2.08;100.00;96246.63;1015394;29;20032;-68
2021/10/15 01:05:31;;;;;;;13.68;10.18;;;;;;;2.08;100.00;96246.63;1019252;29;20019;-69
2021/10/15 01:06:02;;;;;;;18.10;10.65;;;;;;;2.13;100.00;96248.59;1023045;29;20027;-69
2021/10/15 01:06:33;;;;;;;16.70;11.15;;;;;;;2.13;100.00;96246.03;1023040;29;20031;-69
2021/10/15 01:07:03;;;;;;;17.48;10.70;;;;;;;2.11;100.00;96251.41;1015179;29;20032;-68
2021/10/15 01:07:34;;;;;;;15.10;11.32;;;;;;;2.06;100.00;96238.25;1019333;29;20032;-69
2021/10/15 01:08:04;;;;;;;13.65;10.20;;;;;;;2.08;100.00;96246.63;1018626;29;20074;-68
2021/10/15 01:08:38;;;;;;;15.70;10.52;;;;;;;2.09;100.00;96248.22;1019004;29;20034;-68
2021/10/15 01:09:08;;;;;;;14.92;11.02;;;;;;;2.09;100.00;96248.22;1019824;29;20034;-69
2021/10/15 01:09:39;;;;;;;15.02;10.38;;;;;;;2.08;100.00;96238.84;1019523;29;20043;-69
2021/10/15 01:10:09;;;;;;;15.90;10.38;;;;;;;2.08;100.00;96241.44;1015722;29;20032;-69
2021/10/15 01:10:40;;;;;;;12.48;10.10;;;;;;;2.05;100.00;96241.84;1015187;29;20083;-69
2021/10/15 01:11:10;;;;;;;16.48;10.60;;;;;;;2.08;100.00;96238.84;1019107;29;20061;-68
2021/10/15 01:11:40;;;;;;;13.93;10.40;;;;;;;2.01;100.00;96230.28;1023078;29;20468;-69
2021/10/15 01:12:11;;;;;;;16.17;10.45;;;;;;;2.07;100.00;96242.41;1015239;29;20514;-69
2021/10/15 01:12:41;;;;;;;14.15;9.77;;;;;;;2.08;100.00;96244.03;1014927;29;20028;-69
2021/10/15 01:13:12;;;;;;;16.77;10.75;;;;;;;2.09;100.00;96243.03;1007660;29;20031;-69
2021/10/15 01:13:43;;;;;;;16.42;12.15;;;;;;;2.08;100.00;96240.66;1011459;29;20041;-68
2021/10/15 01:14:13;;;;;;;20.30;12.88;;;;;;;2.07;100.00;96239.84;1011360;29;20040;-69
2021/10/15 01:14:44;;;;;;;17.35;12.45;;;;;;;2.05;100.00;96236.66;1015287;29;20028;-68
2021/10/15 01:15:14;;;;;;;19.42;12.13;;;;;;;2.06;100.00;96237.44;1015153;29;20422;-69
2021/10/15 01:15:44;;;;;;;18.13;10.77;;;;;;;2.02;100.00;96234.47;1019374;29;20406;-69
2021/10/15 01:16:15;;;;;;;18.67;11.05;;;;;;;2.02;100.00;96237.06;1014996;29;20526;-68
2021/10/15 01:16:46;;;;;;;15.50;10.60;;;;;;;2.02;100.00;96237.06;1019044;29;20066;-69
2021/10/15 01:17:16;;;;;;;16.08;11.93;;;;;;;2.00;100.00;96233.06;1015077;29;20032;-68
2021/10/15 01:17:47;;;;;;;16.48;11.52;;;;;;;1.92;100.00;96221.09;1014982;29;20035;-69
2021/10/15 01:18:17;;;;;;;16.95;11.25;;;;;;;1.99;100.00;96237.44;1018830;29;20144;-68
2021/10/15 01:18:48;;;;;;;18.00;12.48;;;;;;;1.99;100.00;96236.66;1015503;29;20028;-68
2021/10/15 01:19:18;;;;;;;16.05;12.02;;;;;;;1.94;100.00;96219.09;1022865;29;20034;-69
2021/10/15 01:19:55;;;;;;;17.80;11.70;;;;;;;1.99;100.00;96228.88;1019132;29;20588;-68
2021/10/15 01:20:25;;;;;;;15.86;10.68;;;;;;;1.92;100.00;96222.91;1019753;29;20034;-69
2021/10/15 01:20:56;;;;;;;16.88;12.02;;;;;;;2.04;100.00;96240.22;1018764;29;20386;-68
2021/10/15 01:21:27;;;;;;;20.95;12.52;;;;;;;2.00;100.00;96233.84;1019228;29;20023;-68
2021/10/15 01:22:03;;;;;;;18.34;12.38;;;;;;;2.01;100.00;96219.94;1015400;29;20020;-68
2021/10/15 01:22:33;;;;;;;23.60;13.06;;;;;;;2.06;100.00;96235.66;1019193;29;20030;-68
2021/10/15 01:23:03;;;;;;;19.02;13.98;;;;;;;2.03;100.00;96230.06;1018994;29;20504;-69
2021/10/15 01:23:34;;;;;;;21.98;13.95;;;;;;;2.06;100.00;96233.06;1015762;29;20028;-69
2021/10/15 01:24:04;;;;;;;21.70;13.73;;;;;;;1.97;100.00;96220.50;1015414;29;20098;-68
2021/10/15 01:24:35;;;;;;;20.02;12.88;;;;;;;1.98;100.00;96220.31;1015004;29;20028;-68
2021/10/15 01:25:06;;;;;;;16.65;12.18;;;;;;;2.02;100.00;96221.53;1011125;29;20055;-69
2021/10/15 01:25:36;;;;;;;20.20;13.25;;;;;;;2.07;100.00;96233.84;1015281;29;20027;-67
2021/10/15 01:26:07;;;;;;;30.40;14.55;;;;;;;2.08;100.00;96228.50;1015236;29;20071;-69
2021/10/15 01:26:37;;;;;;;19.38;13.20;;;;;;;2.11;100.00;96228.13;1011225;29;20075;-68
2021/10/15 01:27:09;;;;;;;20.65;14.32;;;;;;;2.11;100.00;96225.53;1015600;29;20128;-68
2021/10/15 01:27:39;;;;;;;18.60;14.12;;;;;;;2.13;100.00;96228.69;1022476;29;20026;-65
2021/10/15 01:28:09;;;;;;;17.05;13.05;;;;;;;2.15;100.00;96228.50;1023076;28;20038;-69
2021/10/15 01:28:40;;;;;;;19.27;12.95;;;;;;;2.15;100.00;96227.69;1023114;29;20090;-69
2021/10/15 01:29:11;;;;;;;18.73;13.60;;;;;;;2.19;100.00;96221.16;1021214;28;20035;-69
2021/10/15 01:29:41;;;;;;;19.25;14.02;;;;;;;2.16;100.00;96226.72;1025654;28;20484;-69
2021/10/15 01:30:12;;;;;;;18.25;13.13;;;;;;;2.19;100.00;96228.91;1027090;28;20018;-69
2021/10/15 01:30:42;;;;;;;20.83;15.07;;;;;;;2.23;100.00;96224.94;1022987;28;20058;-69
2021/10/15 01:31:12;;;;;;;19.98;13.65;;;;;;;2.23;100.00;96232.69;1027327;28;20034;-69
2021/10/15 01:31:43;;;;;;;18.50;13.50;;;;;;;2.30;100.00;96228.31;1026786;28;20039;-68
2021/10/15 01:32:14;;;;;;;18.38;13.90;;;;;;;2.37;100.00;96223.94;1027180;28;20034;-68
2021/10/15 01:32:45;;;;;;;21.06;15.08;;;;;;;2.38;100.00;96225.53;1027604;28;20031;-69
2021/10/15 01:33:15;;;;;;;22.35;14.20;;;;;;;2.41;100.00;96225.13;1031104;28;20034;-68
2021/10/15 01:33:45;;;;;;;20.17;14.73;;;;;;;2.49;100.00;96224.94;1031057;28;20403;-69
2021/10/15 01:34:16;;;;;;;23.20;14.85;;;;;;;2.50;100.00;96231.72;1027094;28;20022;-69
2021/10/15 01:34:46;;;;;;;20.55;14.77;;;;;;;2.49;100.00;96222.34;1031204;28;20080;-68
2021/10/15 01:35:17;;;;;;;18.30;13.85;;;;;;;2.52;100.00;96227.16;1031231;28;20641;-67
2021/10/15 01:35:47;;;;;;;18.52;13.60;;;;;;;2.54;100.00;96222.53;1031046;28;20030;-69
2021/10/15 01:36:18;;;;;;;17.70;12.88;;;;;;;2.55;100.00;96220.78;1035182;28;20025;-69
2021/10/15 01:36:48;;;;;;;16.55;12.25;;;;;;;2.58;100.00;96220.34;1027023;28;20034;-69
2021/10/15 01:37:19;;;;;;;24.23;13.13;;;;;;;2.55;100.00;96216.38;1022875;28;20467;-69
2021/10/15 01:37:52;;;;;;;16.33;12.48;;;;;;;2.54;100.00;96214.78;1026549;28;20480;-69
2021/10/15 01:38:22;;;;;;;17.22;11.56;;;;;;;2.57;100.00;96213.59;1027696;28;20377;-67
2021/10/15 01:38:53;;;;;;;16.08;11.60;;;;;;;2.57;100.00;96213.59;1027512;28;20079;-69
2021/10/15 01:39:23;;;;;;;18.67;12.48;;;;;;;2.56;100.00;96217.97;1023011;29;20547;-68
2021/10/15 01:39:54;;;;;;;17.08;11.38;;;;;;;2.52;100.00;96216.78;1022440;29;20035;-68
2021/10/15 01:40:24;;;;;;;15.18;11.07;;;;;;;2.55;100.00;96213.78;1023081;28;20078;-69
2021/10/15 01:40:55;;;;;;;15.88;11.82;;;;;;;2.55;100.00;96213.00;1027009;28;20109;-66
2021/10/15 01:41:25;;;;;;;16.35;11.00;;;;;;;2.58;100.00;96210.81;1026907;28;20034;-69
2021/10/15 01:41:56;;;;;;;14.30;11.02;;;;;;;2.62;100.00;96210.41;1027017;28;20023;-68
2021/10/15 01:43:23;;;;;;;16.04;10.42;;;;;;;2.60;100.00;96198.44;1027930;28;20042;-67
2021/10/15 01:43:53;;;;;;;14.88;9.92;;;;;;;2.69;100.00;96203.44;1018461;29;20035;-68
2021/10/15 01:44:23;;;;;;;16.70;9.93;;;;;;;2.73;100.00;96212.38;1022280;29;20039;-69
2021/10/15 01:44:54;;;;;;;13.38;9.52;;;;;;;2.66;100.00;96196.84;1019871;29;20075;-70
2021/10/15 01:45:26;;;;;;;14.45;10.38;;;;;;;2.66;100.00;96199.44;1020389;28;20043;-66
2021/10/15 01:45:57;;;;;;;14.66;10.18;;;;;;;2.72;100.00;96196.03;1024552;28;20408;-67
2021/10/15 01:46:27;;;;;;;12.73;9.80;;;;;;;2.72;100.00;96201.22;1021720;29;20027;-68
2021/10/15 01:46:57;;;;;;;13.48;10.05;;;;;;;2.74;100.00;96201.00;1023351;28;20034;-69
2021/10/15 01:47:28;;;;;;;12.95;9.73;;;;;;;2.74;100.00;96203.59;1030978;28;20038;-68
2021/10/15 01:47:59;;;;;;;15.57;10.45;;;;;;;2.75;100.00;96200.00;1033976;28;20416;-67
2021/10/15 01:48:29;;;;;;;13.68;10.00;;;;;;;2.76;100.00;96196.44;1026561;28;20726;-69
2021/10/15 01:48:59;;;;;;;12.48;9.45;;;;;;;2.78;100.00;96205.59;1022876;29;20075;-69
2021/10/15 01:49:30;;;;;;;12.32;8.70;;;;;;;2.85;100.00;96197.81;1022648;29;20023;-69
2021/10/15 01:50:00;;;;;;;13.50;9.45;;;;;;;2.86;100.00;96198.63;1022778;28;20022;-69
2021/10/15 01:50:31;;;;;;;16.15;9.35;;;;;;;2.86;100.00;96191.63;1030604;28;20030;-69
2021/10/15 01:51:01;;;;;;;16.63;9.10;;;;;;;2.86;100.00;96193.44;1038861;28;20028;-68
2021/10/15 01:51:32;;;;;;;11.85;8.98;;;;;;;2.76;100.00;96183.47;1034923;28;20089;-68
2021/10/15 01:52:02;;;;;;;14.23;8.57;;;;;;;2.87;100.00;96195.81;1034734;28;20139;-68
2021/10/15 01:52:33;;;;;;;11.80;9.07;;;;;;;2.86;100.00;96191.63;1026499;28;20046;-69
2021/10/15 01:53:03;;;;;;;12.52;9.13;;;;;;;2.83;100.00;96192.81;1026616;28;20035;-68
2021/10/15 01:53:33;;;;;;;15.35;9.15;;;;;;;2.86;100.00;96196.03;1022747;29;20067;-69
2021/10/15 01:54:05;;;;;;;14.73;9.88;;;;;;;2.86;100.00;96191.63;1022865;28;20034;-68
2021/10/15 01:54:35;;;;;;;13.04;9.26;;;;;;;2.85;100.00;96192.63;1030617;28;20443;-68
2021/10/15 01:55:07;;;;;;;12.70;9.30;;;;;;;2.83;100.00;96184.25;1030729;28;20042;-69
2021/10/15 01:55:37;;;;;;;12.46;8.76;;;;;;;2.86;100.00;96190.84;1030844;28;20574;-67
2021/10/15 01:56:09;;;;;;;14.25;9.50;;;;;;;2.84;100.00;96191.81;1026678;28;20034;-68
2021/10/15 01:56:39;;;;;;;14.30;9.66;;;;;;;2.84;100.00;96191.03;1022766;28;20027;-67
2021/10/15 01:57:10;;;;;;;11.27;9.00;;;;;;;2.87;100.00;96184.66;1026933;28;20566;-68
2021/10/15 01:57:40;;;;;;;12.93;8.60;;;;;;;2.79;100.00;96181.28;1030329;28;20030;-67
2021/10/15 01:58:11;;;;;;;11.70;8.73;;;;;;;2.88;100.00;96189.63;1025883;28;20587;-69
2021/10/15 01:58:41;;;;;;;10.38;8.43;;;;;;;2.90;100.00;96195.41;1022306;29;20023;-68
2021/10/15 01:59:11;;;;;;;11.57;8.52;;;;;;;2.87;100.00;96190.63;1020851;29;20058;-69
2021/10/15 01:59:42;;;;;;;10.43;8.27;;;;;;;2.87;100.00;96189.84;1018494;28;20027;-69
2021/10/15 02:00:13;;;;;;;13.68;8.88;;;;;;;2.86;100.00;96186.44;1022664;28;20035;-68
2021/10/15 02:00:44;;;;;;;11.60;8.28;;;;;;;2.84;100.00;96178.88;1026357;28;20460;-69
2021/10/15 02:01:14;;;;;;;12.70;8.80;;;;;;;2.84;100.00;96184.03;1022989;28;20038;-69
2021/10/15 02:01:45;;;;;;;15.50;8.60;;;;;;;2.84;100.00;96191.03;1026825;28;20061;-69
2021/10/15 02:02:15;;;;;;;11.48;8.85;;;;;;;2.81;100.00;96181.06;1026426;28;20112;-70
2021/10/15 02:02:46;;;;;;;13.65;9.13;;;;;;;2.74;100.00;96175.09;1030369;28;20037;-67
2021/10/15 02:03:16;;;;;;;11.20;8.93;;;;;;;2.80;100.00;96187.25;1026591;28;20014;-67
2021/10/15 02:03:47;;;;;;;10.45;8.38;;;;;;;2.81;100.00;96183.66;1026948;28;20015;-70
2021/10/15 02:04:17;;;;;;;13.90;8.80;;;;;;;2.82;100.00;96190.44;1026513;28;20097;-68
2021/10/15 02:04:47;;;;;;;16.00;9.45;;;;;;;2.81;100.00;96181.84;1026710;28;20019;-67
2021/10/15 02:05:18;;;;;;;14.82;9.23;;;;;;;2.76;100.00;96175.72;1030603;28;20022;-67
2021/10/15 02:05:49;;;;;;;15.07;9.30;;;;;;;2.77;100.00;96182.47;1030920;28;20094;-67
2021/10/15 02:06:19;;;;;;;13.25;8.55;;;;;;;2.68;100.00;96173.31;1030700;28;20023;-68
2021/10/15 02:06:49;;;;;;;15.45;8.90;;;;;;;2.70;100.00;96182.47;1018534;29;20032;-67
2021/10/15 02:07:20;;;;;;;11.77;8.63;;;;;;;2.72;100.00;96190.88;1014757;29;20028;-69
2021/10/15 02:07:50;;;;;;;14.38;9.40;;;;;;;2.71;100.00;96196.22;1018421;29;20087;-65
2021/10/15 02:08:21;;;;;;;10.60;8.95;;;;;;;2.70;100.00;96186.88;1022644;28;20027;-66
2021/10/15 02:08:51;;;;;;;14.30;9.35;;;;;;;2.68;100.00;96183.66;1022792;28;20042;-67
2021/10/15 02:09:22;;;;;;;11.70;8.55;;;;;;;2.63;100.00;96166.16;1026753;28;20046;-68
2021/10/15 02:09:52;;;;;;;12.88;8.15;;;;;;;2.65;100.00;96174.53;1026627;28;20081;-68
2021/10/15 02:10:23;;;;;;;12.98;8.80;;;;;;;2.69;100.00;96177.50;1026631;28;20054;-68
2021/10/15 02:10:53;;;;;;;9.68;8.00;;;;;;;2.67;100.00;96169.94;1022907;28;20031;-67
2021/10/15 02:11:23;;;;;;;14.23;8.48;;;;;;;2.75;100.00;96184.47;1026480;28;20128;-68
2021/10/15 02:11:54;;;;;;;11.63;8.25;;;;;;;2.77;100.00;96183.25;1026928;28;20027;-68
2021/10/15 02:12:24;;;;;;;12.85;8.75;;;;;;;2.72;100.00;96184.88;1026637;28;20031;-66
2021/10/15 02:12:55;;;;;;;10.90;8.32;;;;;;;2.72;100.00;96182.31;1026522;28;20077;-66
2021/10/15 02:13:25;;;;;;;12.10;8.18;;;;;;;2.68;100.00;96179.28;1022744;29;20031;-66
2021/10/15 02:13:56;;;;;;;12.05;8.77;;;;;;;2.69;100.00;96186.09;1026369;28;20500;-68
2021/10/15 02:14:26;;;;;;;13.48;8.85;;;;;;;2.69;100.00;96174.94;1026355;28;20495;-69
2021/10/15 02:14:56;;;;;;;14.57;8.90;;;;;;;2.65;100.00;96171.13;1026846;28;20528;-67
2021/10/15 02:15:27;;;;;;;11.63;8.45;;;;;;;2.69;100.00;96180.09;1018650;28;20477;-68
2021/10/15 02:15:59;;;;;;;11.18;8.10;;;;;;;2.72;100.00;96179.72;1026716;28;20579;-66
2021/10/15 02:16:29;;;;;;;10.44;8.26;;;;;;;2.73;100.00;96187.25;1030736;28;20085;-67
2021/10/15 02:17:00;;;;;;;10.10;7.68;;;;;;;2.70;100.00;96185.06;1030997;28;20018;-68
2021/10/15 02:17:30;;;;;;;10.77;8.30;;;;;;;2.71;100.00;96178.88;1034825;28;20033;-67
2021/10/15 02:18:00;;;;;;;14.15;9.07;;;;;;;2.72;100.00;96185.69;1029830;28;20066;-67
2021/10/15 02:18:31;;;;;;;10.20;8.13;;;;;;;2.73;100.00;96182.09;1030539;28;20037;-68
2021/10/15 02:19:01;;;;;;;13.02;9.05;;;;;;;2.71;100.00;96178.09;1018648;29;20039;-66
2021/10/15 02:19:32;;;;;;;12.38;8.02;;;;;;;2.74;100.00;96178.47;1022331;29;20015;-67
2021/10/15 02:20:04;;;;;;;12.13;8.63;;;;;;;2.70;100.00;96179.09;1022513;29;20027;-68
2021/10/15 02:20:34;;;;;;;11.34;8.22;;;;;;;2.71;100.00;96180.69;1022462;28;20134;-68
2021/10/15 02:21:05;;;;;;;10.00;8.20;;;;;;;2.73;100.00;96173.53;1026594;28;20054;-67
2021/10/15 02:21:35;;;;;;;14.48;8.88;;;;;;;2.73;100.00;96176.09;1022444;28;20063;-66
2021/10/15 02:22:06;;;;;;;12.65;8.40;;;;;;;2.72;100.00;96174.53;1020928;28;20027;-67